Meteo Giornale » Osservazioni meteo Egitto » Cairo

ore: 00:30 - Osservazioni Meteo Cairo
Lat. 30° 8' N Lon. 31° 24' E Alt. 64 metri s.l.m.

sereno Africa/Cairo

26 °C

Sereno

Temp. 24 Ore

24 °C

36 °C

Nord/NOvest

11.1 Km/h

Dew point 18 °C

Umidità 61 %

Visibilità  10 Km

Il sole sorge alle ore 04:51

Il sole tramonta alle ore 18:59

Data e Ora Cielo e Fenomeni T °C DP °C Um. % Pres. hPa Vis. km Vento km/h
Oggi h: 00:30 sereno Sereno 26 18 61 1010 10 N/NO 11.1
Oggi h: 00:00 sereno Sereno 27 17 54 1010 10 NO 9.3
Ieri h: 23:30 sereno Sereno 27 18 57 1010 10 NO 9.3
Ieri h: 23:00 sereno Sereno 27 18 57 1010 10 NO 11.1
Ieri h: 22:30 sereno Sereno 27 17 54 1010 10 NO 11.1
Ieri h: 22:00 sereno Sereno 28 17 51 1010 10 NO 13
Ieri h: 21:30 sereno Sereno 28 17 51 1010 10 NO 14.8
Ieri h: 21:00 sereno Sereno 29 17 48 1010 10 NO 14.8
Ieri h: 20:30 sereno Sereno 29 17 48 1009 10 NO 11.1
Ieri h: 20:00 sereno Sereno 30 16 42 1009 10 O/NO 18.5
Ieri h: 19:30 sereno Sereno 30 17 45 1009 10 O/NO 18.5
Ieri h: 19:00 sereno Sereno 31 17 43 1008 10 O/NO 18.5
Ieri h: 18:30 sereno Sereno 31 17 43 1008 10 N/NO 22.2
Ieri h: 18:00 sereno Sereno 32 15 35 1008 10 NO 22.2
Ieri h: 17:30 sereno Sereno 33 13 29 1008 10 NO 24
Ieri h: 17:00 sereno Sereno 35 11 23 1007 10 O 27.8
Ieri h: 16:30 sereno Sereno 35 11 23 1007 10 O 27.8
Ieri h: 16:00 sereno Sereno 36 11 22 1007 10 O 24
Ieri h: 15:30 sereno Sereno 36 11 22 1007 10 O 27.8
Ieri h: 15:00 sereno Sereno 36 12 23 1007 10 O 27.8
Ieri h: 14:30 sereno Sereno 36 12 23 1008 10 O 24
Ieri h: 14:00 sereno Sereno 35 13 26 1008 10 O 18.5
Ieri h: 13:30 sereno Sereno 35 13 26 1008 10 O/SO 22.2
Ieri h: 13:00 sereno Sereno 34 13 28 1008 10 O 29.6
Ieri h: 12:30 sereno Sereno 34 13 28 1009 10 O 27.8
Ieri h: 12:00 sereno Sereno 33 13 29 1009 10 O/SO 20.3
Ieri h: 11:30 sereno Sereno 33 14 31 1009 10 O 18.5
Ieri h: 11:00 sereno Sereno 32 14 33 1009 10 O/SO 16.7
Ieri h: 10:30 sereno Sereno 31 13 33 1009 10 O 16.7
Ieri h: 10:00 sereno Sereno 31 13 33 1009 10 O 14.8
Ieri h: 09:30 sereno Sereno 30 13 35 1009 10 O 9.3
Ieri h: 09:00 sereno Sereno 30 15 40 1009 10 SO 11.1
Ieri h: 08:30 sereno Sereno 28 18 54 1009 10 SO 9.3
Ieri h: 08:00 sereno Sereno 28 19 58 1009 10 O/SO 9.3
Ieri h: 07:30 sereno Sereno 27 18 57 1009 10 O/SO 11.1
Ieri h: 07:00 sereno Sereno 26 19 65 1009 10 SO 11.1
Ieri h: 06:30 sereno Sereno 25 20 73 1008 10 SO 9.3
Ieri h: 06:00 sereno Sereno 25 20 73 1008 10 SO 9.3
Ieri h: 05:30 sereno Sereno 24 20 78 1008 10 N 0
Ieri h: 05:00 sereno Sereno 24 20 78 1008 10 N 5.5
Ieri h: 04:30 sereno Sereno 24 20 78 1008 10 NO 9.3
Ieri h: 04:00 sereno Sereno 24 20 78 1008 10 O/NO 9.3
Ieri h: 03:30 sereno Sereno 24 20 78 1008 10 NO 11.1
Ieri h: 03:00 sereno Sereno 24 20 78 1008 10 O 11.1
Ieri h: 02:30 sereno Sereno 25 20 73 1008 10 O/NO 11.1
Ieri h: 02:00 sereno Sereno 25 20 73 1008 10 NO 14.8